sensor_id;sensor_type;location;lat;lon;timestamp;P1;durP1;ratioP1;P2;durP2;ratioP2
17725;SDS011;8983;53.156;17.960;2023-11-19T00:01:26;26.10;;;15.03;;
17725;SDS011;8983;53.156;17.960;2023-11-19T00:03:54;23.83;;;12.87;;
17725;SDS011;8983;53.156;17.960;2023-11-19T00:06:22;21.80;;;12.50;;
17725;SDS011;8983;53.156;17.960;2023-11-19T00:08:51;25.97;;;12.63;;
17725;SDS011;8983;53.156;17.960;2023-11-19T00:11:19;20.30;;;12.20;;
17725;SDS011;8983;53.156;17.960;2023-11-19T00:13:49;20.60;;;12.17;;
17725;SDS011;8983;53.156;17.960;2023-11-19T00:16:17;23.50;;;12.60;;
17725;SDS011;8983;53.156;17.960;2023-11-19T00:18:45;21.00;;;12.43;;
17725;SDS011;8983;53.156;17.960;2023-11-19T00:21:13;24.70;;;13.70;;
17725;SDS011;8983;53.156;17.960;2023-11-19T00:23:42;24.27;;;12.73;;
17725;SDS011;8983;53.156;17.960;2023-11-19T00:26:10;25.73;;;13.03;;
17725;SDS011;8983;53.156;17.960;2023-11-19T00:28:40;20.93;;;11.73;;
17725;SDS011;8983;53.156;17.960;2023-11-19T00:31:10;27.93;;;14.43;;
17725;SDS011;8983;53.156;17.960;2023-11-19T00:33:39;23.70;;;13.87;;
17725;SDS011;8983;53.156;17.960;2023-11-19T00:36:10;22.60;;;13.43;;
17725;SDS011;8983;53.156;17.960;2023-11-19T00:38:39;23.97;;;13.80;;
17725;SDS011;8983;53.156;17.960;2023-11-19T00:41:07;23.33;;;12.87;;
17725;SDS011;8983;53.156;17.960;2023-11-19T00:43:35;28.67;;;13.60;;
17725;SDS011;8983;53.156;17.960;2023-11-19T00:46:03;26.77;;;13.80;;
17725;SDS011;8983;53.156;17.960;2023-11-19T00:48:38;27.43;;;14.40;;
17725;SDS011;8983;53.156;17.960;2023-11-19T00:51:06;22.63;;;12.97;;
17725;SDS011;8983;53.156;17.960;2023-11-19T00:53:34;27.00;;;13.97;;
17725;SDS011;8983;53.156;17.960;2023-11-19T00:56:01;29.70;;;15.33;;
17725;SDS011;8983;53.156;17.960;2023-11-19T00:58:30;28.87;;;15.47;;
17725;SDS011;8983;53.156;17.960;2023-11-19T01:00:58;27.93;;;16.60;;
17725;SDS011;8983;53.156;17.960;2023-11-19T01:03:26;40.60;;;20.67;;
17725;SDS011;8983;53.156;17.960;2023-11-19T01:05:56;65.63;;;33.20;;
17725;SDS011;8983;53.156;17.960;2023-11-19T01:08:26;62.90;;;28.47;;
17725;SDS011;8983;53.156;17.960;2023-11-19T01:10:54;59.20;;;26.60;;
17725;SDS011;8983;53.156;17.960;2023-11-19T01:13:22;38.97;;;19.53;;
17725;SDS011;8983;53.156;17.960;2023-11-19T01:15:50;32.67;;;17.13;;
17725;SDS011;8983;53.156;17.960;2023-11-19T01:18:19;27.83;;;16.37;;
17725;SDS011;8983;53.156;17.960;2023-11-19T01:20:47;35.10;;;17.20;;
17725;SDS011;8983;53.156;17.960;2023-11-19T01:23:17;33.67;;;17.77;;
17725;SDS011;8983;53.156;17.960;2023-11-19T01:25:45;29.20;;;15.17;;
17725;SDS011;8983;53.156;17.960;2023-11-19T01:28:14;29.60;;;15.70;;
17725;SDS011;8983;53.156;17.960;2023-11-19T01:30:43;30.27;;;15.63;;
17725;SDS011;8983;53.156;17.960;2023-11-19T01:33:11;29.17;;;16.53;;
17725;SDS011;8983;53.156;17.960;2023-11-19T01:35:39;24.17;;;14.13;;
17725;SDS011;8983;53.156;17.960;2023-11-19T01:38:07;26.93;;;15.47;;
17725;SDS011;8983;53.156;17.960;2023-11-19T01:44:12;27.70;;;14.27;;
17725;SDS011;8983;53.156;17.960;2023-11-19T01:46:40;22.17;;;12.77;;
17725;SDS011;8983;53.156;17.960;2023-11-19T01:49:11;26.27;;;14.17;;
17725;SDS011;8983;53.156;17.960;2023-11-19T01:51:41;26.73;;;13.93;;
17725;SDS011;8983;53.156;17.960;2023-11-19T01:54:10;23.27;;;11.93;;
17725;SDS011;8983;53.156;17.960;2023-11-19T01:56:39;27.70;;;13.00;;
17725;SDS011;8983;53.156;17.960;2023-11-19T01:59:08;21.87;;;12.13;;
17725;SDS011;8983;53.156;17.960;2023-11-19T02:01:41;23.40;;;12.70;;
17725;SDS011;8983;53.156;17.960;2023-11-19T02:04:09;27.03;;;12.83;;
17725;SDS011;8983;53.156;17.960;2023-11-19T02:06:41;22.90;;;12.47;;
17725;SDS011;8983;53.156;17.960;2023-11-19T02:09:10;23.90;;;12.47;;
17725;SDS011;8983;53.156;17.960;2023-11-19T02:11:39;23.50;;;12.13;;
17725;SDS011;8983;53.156;17.960;2023-11-19T02:14:08;25.23;;;12.53;;
17725;SDS011;8983;53.156;17.960;2023-11-19T02:16:37;21.07;;;11.87;;
17725;SDS011;8983;53.156;17.960;2023-11-19T02:19:07;24.37;;;12.10;;
17725;SDS011;8983;53.156;17.960;2023-11-19T02:21:37;23.20;;;12.40;;
17725;SDS011;8983;53.156;17.960;2023-11-19T02:24:06;21.10;;;12.33;;
17725;SDS011;8983;53.156;17.960;2023-11-19T02:26:39;22.77;;;11.57;;
17725;SDS011;8983;53.156;17.960;2023-11-19T02:29:14;28.87;;;12.83;;
17725;SDS011;8983;53.156;17.960;2023-11-19T02:31:42;21.67;;;12.17;;
17725;SDS011;8983;53.156;17.960;2023-11-19T02:34:10;23.20;;;12.70;;
17725;SDS011;8983;53.156;17.960;2023-11-19T02:36:39;24.27;;;13.73;;
17725;SDS011;8983;53.156;17.960;2023-11-19T02:39:08;25.23;;;13.63;;
17725;SDS011;8983;53.156;17.960;2023-11-19T02:41:38;23.93;;;13.20;;
17725;SDS011;8983;53.156;17.960;2023-11-19T02:44:07;27.37;;;13.53;;
17725;SDS011;8983;53.156;17.960;2023-11-19T02:46:36;25.00;;;13.97;;
17725;SDS011;8983;53.156;17.960;2023-11-19T02:49:04;29.07;;;14.53;;
17725;SDS011;8983;53.156;17.960;2023-11-19T02:51:33;24.13;;;13.30;;
17725;SDS011;8983;53.156;17.960;2023-11-19T02:54:02;27.27;;;13.80;;
17725;SDS011;8983;53.156;17.960;2023-11-19T02:56:30;29.40;;;15.27;;
17725;SDS011;8983;53.156;17.960;2023-11-19T02:59:03;29.63;;;15.20;;
17725;SDS011;8983;53.156;17.960;2023-11-19T03:01:42;26.63;;;14.50;;
17725;SDS011;8983;53.156;17.960;2023-11-19T03:04:16;30.17;;;14.50;;
17725;SDS011;8983;53.156;17.960;2023-11-19T03:06:46;30.77;;;14.43;;
17725;SDS011;8983;53.156;17.960;2023-11-19T03:09:14;26.10;;;14.43;;
17725;SDS011;8983;53.156;17.960;2023-11-19T03:11:42;27.57;;;15.10;;
17725;SDS011;8983;53.156;17.960;2023-11-19T03:14:10;26.03;;;13.93;;
17725;SDS011;8983;53.156;17.960;2023-11-19T03:16:39;29.33;;;13.87;;
17725;SDS011;8983;53.156;17.960;2023-11-19T03:19:08;26.23;;;13.93;;
17725;SDS011;8983;53.156;17.960;2023-11-19T03:21:36;31.87;;;15.80;;
17725;SDS011;8983;53.156;17.960;2023-11-19T03:24:05;30.27;;;15.20;;
17725;SDS011;8983;53.156;17.960;2023-11-19T03:26:34;31.60;;;15.00;;
17725;SDS011;8983;53.156;17.960;2023-11-19T03:29:03;29.10;;;14.90;;
17725;SDS011;8983;53.156;17.960;2023-11-19T03:31:31;27.93;;;15.27;;
17725;SDS011;8983;53.156;17.960;2023-11-19T03:33:59;27.83;;;15.47;;
17725;SDS011;8983;53.156;17.960;2023-11-19T03:36:32;29.77;;;14.53;;
17725;SDS011;8983;53.156;17.960;2023-11-19T03:39:01;26.63;;;14.27;;
17725;SDS011;8983;53.156;17.960;2023-11-19T03:41:30;28.23;;;15.57;;
17725;SDS011;8983;53.156;17.960;2023-11-19T03:44:01;31.73;;;14.90;;
17725;SDS011;8983;53.156;17.960;2023-11-19T03:46:29;28.63;;;13.80;;
17725;SDS011;8983;53.156;17.960;2023-11-19T03:48:57;24.80;;;14.83;;
17725;SDS011;8983;53.156;17.960;2023-11-19T03:51:26;33.97;;;16.17;;
17725;SDS011;8983;53.156;17.960;2023-11-19T03:53:55;26.80;;;15.10;;
17725;SDS011;8983;53.156;17.960;2023-11-19T03:56:23;24.70;;;13.70;;
17725;SDS011;8983;53.156;17.960;2023-11-19T03:58:51;26.60;;;14.97;;
17725;SDS011;8983;53.156;17.960;2023-11-19T04:01:20;25.53;;;15.23;;
17725;SDS011;8983;53.156;17.960;2023-11-19T04:03:48;26.27;;;14.73;;
17725;SDS011;8983;53.156;17.960;2023-11-19T04:06:17;31.27;;;15.63;;
17725;SDS011;8983;53.156;17.960;2023-11-19T04:08:45;28.70;;;14.80;;
17725;SDS011;8983;53.156;17.960;2023-11-19T04:11:14;27.47;;;15.17;;
17725;SDS011;8983;53.156;17.960;2023-11-19T04:13:43;27.27;;;14.53;;
17725;SDS011;8983;53.156;17.960;2023-11-19T04:16:11;31.07;;;14.97;;
17725;SDS011;8983;53.156;17.960;2023-11-19T04:18:41;24.20;;;14.57;;
17725;SDS011;8983;53.156;17.960;2023-11-19T04:21:09;28.53;;;15.03;;
17725;SDS011;8983;53.156;17.960;2023-11-19T04:23:37;25.73;;;14.77;;
17725;SDS011;8983;53.156;17.960;2023-11-19T04:26:05;25.20;;;14.03;;
17725;SDS011;8983;53.156;17.960;2023-11-19T04:28:38;23.73;;;14.83;;
17725;SDS011;8983;53.156;17.960;2023-11-19T04:31:06;25.47;;;15.20;;
17725;SDS011;8983;53.156;17.960;2023-11-19T04:33:36;25.27;;;14.77;;
17725;SDS011;8983;53.156;17.960;2023-11-19T04:36:04;27.03;;;13.73;;
17725;SDS011;8983;53.156;17.960;2023-11-19T04:38:33;22.97;;;14.10;;
17725;SDS011;8983;53.156;17.960;2023-11-19T04:41:01;27.17;;;14.97;;
17725;SDS011;8983;53.156;17.960;2023-11-19T04:43:31;23.47;;;14.00;;
17725;SDS011;8983;53.156;17.960;2023-11-19T04:46:01;29.03;;;15.73;;
17725;SDS011;8983;53.156;17.960;2023-11-19T04:48:31;23.73;;;14.03;;
17725;SDS011;8983;53.156;17.960;2023-11-19T04:51:04;26.63;;;14.63;;
17725;SDS011;8983;53.156;17.960;2023-11-19T04:53:32;21.20;;;13.33;;
17725;SDS011;8983;53.156;17.960;2023-11-19T04:56:00;24.33;;;13.97;;
17725;SDS011;8983;53.156;17.960;2023-11-19T04:58:34;24.33;;;13.37;;
17725;SDS011;8983;53.156;17.960;2023-11-19T05:01:05;24.50;;;14.33;;
17725;SDS011;8983;53.156;17.960;2023-11-19T05:03:33;24.43;;;13.43;;
17725;SDS011;8983;53.156;17.960;2023-11-19T05:06:03;21.23;;;13.10;;
17725;SDS011;8983;53.156;17.960;2023-11-19T05:08:31;25.60;;;13.00;;
17725;SDS011;8983;53.156;17.960;2023-11-19T05:11:00;28.13;;;15.03;;
17725;SDS011;8983;53.156;17.960;2023-11-19T05:13:28;28.33;;;15.20;;
17725;SDS011;8983;53.156;17.960;2023-11-19T05:15:56;26.83;;;14.97;;
17725;SDS011;8983;53.156;17.960;2023-11-19T05:18:25;24.73;;;14.83;;
17725;SDS011;8983;53.156;17.960;2023-11-19T05:20:54;28.70;;;13.77;;
17725;SDS011;8983;53.156;17.960;2023-11-19T05:23:22;29.30;;;14.87;;
17725;SDS011;8983;53.156;17.960;2023-11-19T05:25:50;26.63;;;13.60;;
17725;SDS011;8983;53.156;17.960;2023-11-19T05:28:18;26.07;;;12.93;;
17725;SDS011;8983;53.156;17.960;2023-11-19T05:30:46;23.10;;;13.40;;
17725;SDS011;8983;53.156;17.960;2023-11-19T05:33:14;23.47;;;13.43;;
17725;SDS011;8983;53.156;17.960;2023-11-19T05:35:44;22.93;;;12.87;;
17725;SDS011;8983;53.156;17.960;2023-11-19T05:38:12;24.10;;;13.53;;
17725;SDS011;8983;53.156;17.960;2023-11-19T05:40:40;24.87;;;14.23;;
17725;SDS011;8983;53.156;17.960;2023-11-19T05:43:08;19.67;;;12.87;;
17725;SDS011;8983;53.156;17.960;2023-11-19T05:45:37;20.63;;;12.77;;
17725;SDS011;8983;53.156;17.960;2023-11-19T05:48:05;23.23;;;13.40;;
17725;SDS011;8983;53.156;17.960;2023-11-19T05:50:33;22.47;;;13.20;;
17725;SDS011;8983;53.156;17.960;2023-11-19T05:53:03;24.63;;;13.27;;
17725;SDS011;8983;53.156;17.960;2023-11-19T05:55:35;20.90;;;12.47;;
17725;SDS011;8983;53.156;17.960;2023-11-19T05:58:11;19.33;;;12.17;;
17725;SDS011;8983;53.156;17.960;2023-11-19T06:00:39;26.20;;;13.80;;
17725;SDS011;8983;53.156;17.960;2023-11-19T06:03:08;22.93;;;13.03;;
17725;SDS011;8983;53.156;17.960;2023-11-19T06:05:36;24.10;;;12.97;;
17725;SDS011;8983;53.156;17.960;2023-11-19T06:08:06;21.07;;;12.50;;
17725;SDS011;8983;53.156;17.960;2023-11-19T06:10:34;24.13;;;13.30;;
17725;SDS011;8983;53.156;17.960;2023-11-19T06:13:02;25.67;;;13.40;;
17725;SDS011;8983;53.156;17.960;2023-11-19T06:15:32;24.07;;;13.50;;
17725;SDS011;8983;53.156;17.960;2023-11-19T06:18:01;26.90;;;13.30;;
17725;SDS011;8983;53.156;17.960;2023-11-19T06:20:30;25.40;;;12.33;;
17725;SDS011;8983;53.156;17.960;2023-11-19T06:23:10;22.63;;;11.97;;
17725;SDS011;8983;53.156;17.960;2023-11-19T06:25:39;21.00;;;11.90;;
17725;SDS011;8983;53.156;17.960;2023-11-19T06:28:07;19.83;;;11.97;;
17725;SDS011;8983;53.156;17.960;2023-11-19T06:30:36;22.00;;;12.33;;
17725;SDS011;8983;53.156;17.960;2023-11-19T06:33:04;27.07;;;12.30;;
17725;SDS011;8983;53.156;17.960;2023-11-19T06:35:32;26.00;;;12.67;;
17725;SDS011;8983;53.156;17.960;2023-11-19T06:38:03;25.07;;;12.67;;
17725;SDS011;8983;53.156;17.960;2023-11-19T06:40:33;21.23;;;12.73;;
17725;SDS011;8983;53.156;17.960;2023-11-19T06:43:03;22.07;;;11.97;;
17725;SDS011;8983;53.156;17.960;2023-11-19T06:45:31;19.07;;;12.10;;
17725;SDS011;8983;53.156;17.960;2023-11-19T06:48:00;22.37;;;13.33;;
17725;SDS011;8983;53.156;17.960;2023-11-19T06:50:30;19.80;;;11.93;;
17725;SDS011;8983;53.156;17.960;2023-11-19T06:52:58;22.13;;;12.57;;
17725;SDS011;8983;53.156;17.960;2023-11-19T06:55:26;23.57;;;12.67;;
17725;SDS011;8983;53.156;17.960;2023-11-19T06:57:56;20.60;;;12.43;;
17725;SDS011;8983;53.156;17.960;2023-11-19T07:00:24;22.07;;;12.57;;
17725;SDS011;8983;53.156;17.960;2023-11-19T07:02:53;17.87;;;10.83;;
17725;SDS011;8983;53.156;17.960;2023-11-19T07:05:22;20.33;;;11.63;;
17725;SDS011;8983;53.156;17.960;2023-11-19T07:07:51;19.20;;;10.77;;
17725;SDS011;8983;53.156;17.960;2023-11-19T07:10:20;18.13;;;10.83;;
17725;SDS011;8983;53.156;17.960;2023-11-19T07:12:48;20.80;;;11.33;;
17725;SDS011;8983;53.156;17.960;2023-11-19T07:15:18;21.37;;;11.83;;
17725;SDS011;8983;53.156;17.960;2023-11-19T07:17:46;18.37;;;10.73;;
17725;SDS011;8983;53.156;17.960;2023-11-19T07:20:28;21.97;;;10.93;;
17725;SDS011;8983;53.156;17.960;2023-11-19T07:22:57;19.50;;;11.00;;
17725;SDS011;8983;53.156;17.960;2023-11-19T07:25:25;18.50;;;10.23;;
17725;SDS011;8983;53.156;17.960;2023-11-19T07:27:53;18.90;;;11.17;;
17725;SDS011;8983;53.156;17.960;2023-11-19T07:30:24;18.67;;;10.43;;
17725;SDS011;8983;53.156;17.960;2023-11-19T07:32:52;19.13;;;10.77;;
17725;SDS011;8983;53.156;17.960;2023-11-19T07:35:20;18.53;;;10.73;;
17725;SDS011;8983;53.156;17.960;2023-11-19T07:37:48;15.57;;;9.90;;
17725;SDS011;8983;53.156;17.960;2023-11-19T07:40:16;18.87;;;11.33;;
17725;SDS011;8983;53.156;17.960;2023-11-19T07:42:45;19.40;;;10.20;;
17725;SDS011;8983;53.156;17.960;2023-11-19T07:45:13;17.00;;;10.73;;
17725;SDS011;8983;53.156;17.960;2023-11-19T07:47:43;18.93;;;10.57;;
17725;SDS011;8983;53.156;17.960;2023-11-19T07:50:12;17.03;;;10.13;;
17725;SDS011;8983;53.156;17.960;2023-11-19T07:52:43;19.33;;;10.77;;
17725;SDS011;8983;53.156;17.960;2023-11-19T07:55:11;20.10;;;10.60;;
17725;SDS011;8983;53.156;17.960;2023-11-19T07:57:38;21.30;;;11.60;;
17725;SDS011;8983;53.156;17.960;2023-11-19T08:00:07;20.90;;;10.77;;
17725;SDS011;8983;53.156;17.960;2023-11-19T08:02:39;20.73;;;11.20;;
17725;SDS011;8983;53.156;17.960;2023-11-19T08:05:09;17.23;;;10.47;;
17725;SDS011;8983;53.156;17.960;2023-11-19T08:07:38;20.27;;;11.10;;
17725;SDS011;8983;53.156;17.960;2023-11-19T08:10:06;17.77;;;11.23;;
17725;SDS011;8983;53.156;17.960;2023-11-19T08:12:37;22.93;;;12.53;;
17725;SDS011;8983;53.156;17.960;2023-11-19T08:15:05;18.97;;;11.70;;
17725;SDS011;8983;53.156;17.960;2023-11-19T08:17:34;20.10;;;12.60;;
17725;SDS011;8983;53.156;17.960;2023-11-19T08:20:03;21.63;;;11.70;;
17725;SDS011;8983;53.156;17.960;2023-11-19T08:22:38;20.87;;;11.20;;
17725;SDS011;8983;53.156;17.960;2023-11-19T08:25:06;17.70;;;9.20;;
17725;SDS011;8983;53.156;17.960;2023-11-19T08:27:35;18.27;;;10.57;;
17725;SDS011;8983;53.156;17.960;2023-11-19T08:30:04;18.57;;;10.63;;
17725;SDS011;8983;53.156;17.960;2023-11-19T08:32:34;17.30;;;11.00;;
17725;SDS011;8983;53.156;17.960;2023-11-19T08:35:03;17.90;;;11.20;;
17725;SDS011;8983;53.156;17.960;2023-11-19T08:37:32;19.97;;;10.87;;
17725;SDS011;8983;53.156;17.960;2023-11-19T08:40:05;20.70;;;11.23;;
17725;SDS011;8983;53.156;17.960;2023-11-19T08:42:33;21.83;;;12.50;;
17725;SDS011;8983;53.156;17.960;2023-11-19T08:45:02;22.50;;;11.93;;
17725;SDS011;8983;53.156;17.960;2023-11-19T08:47:31;26.50;;;12.30;;
17725;SDS011;8983;53.156;17.960;2023-11-19T08:50:00;19.33;;;11.50;;
17725;SDS011;8983;53.156;17.960;2023-11-19T08:52:30;20.60;;;12.03;;
17725;SDS011;8983;53.156;17.960;2023-11-19T08:55:00;19.90;;;11.60;;
17725;SDS011;8983;53.156;17.960;2023-11-19T08:57:30;19.63;;;11.13;;
17725;SDS011;8983;53.156;17.960;2023-11-19T08:59:59;23.03;;;12.60;;
17725;SDS011;8983;53.156;17.960;2023-11-19T09:02:27;20.37;;;11.93;;
17725;SDS011;8983;53.156;17.960;2023-11-19T09:04:55;19.50;;;11.70;;
17725;SDS011;8983;53.156;17.960;2023-11-19T09:07:23;21.00;;;11.10;;
17725;SDS011;8983;53.156;17.960;2023-11-19T09:09:51;24.10;;;12.70;;
17725;SDS011;8983;53.156;17.960;2023-11-19T09:12:20;14.07;;;9.77;;
17725;SDS011;8983;53.156;17.960;2023-11-19T09:14:50;19.47;;;11.40;;
17725;SDS011;8983;53.156;17.960;2023-11-19T09:17:18;22.20;;;11.57;;
17725;SDS011;8983;53.156;17.960;2023-11-19T09:19:46;21.93;;;11.40;;
17725;SDS011;8983;53.156;17.960;2023-11-19T09:22:14;25.50;;;12.23;;
17725;SDS011;8983;53.156;17.960;2023-11-19T09:24:43;21.63;;;10.80;;
17725;SDS011;8983;53.156;17.960;2023-11-19T09:27:11;20.13;;;12.07;;
17725;SDS011;8983;53.156;17.960;2023-11-19T09:29:39;20.77;;;12.13;;
17725;SDS011;8983;53.156;17.960;2023-11-19T09:32:08;21.27;;;11.67;;
17725;SDS011;8983;53.156;17.960;2023-11-19T09:34:37;21.07;;;12.67;;
17725;SDS011;8983;53.156;17.960;2023-11-19T09:37:05;22.30;;;11.83;;
17725;SDS011;8983;53.156;17.960;2023-11-19T09:39:47;22.07;;;12.53;;
17725;SDS011;8983;53.156;17.960;2023-11-19T09:42:15;22.87;;;11.60;;
17725;SDS011;8983;53.156;17.960;2023-11-19T09:44:44;20.97;;;11.80;;
17725;SDS011;8983;53.156;17.960;2023-11-19T09:47:16;25.97;;;12.90;;
17725;SDS011;8983;53.156;17.960;2023-11-19T09:49:46;24.70;;;13.13;;
17725;SDS011;8983;53.156;17.960;2023-11-19T09:52:16;22.30;;;13.23;;
17725;SDS011;8983;53.156;17.960;2023-11-19T09:54:44;25.23;;;14.53;;
17725;SDS011;8983;53.156;17.960;2023-11-19T09:57:12;30.47;;;15.60;;
17725;SDS011;8983;53.156;17.960;2023-11-19T09:59:44;31.10;;;16.00;;
17725;SDS011;8983;53.156;17.960;2023-11-19T10:02:15;23.97;;;14.20;;
17725;SDS011;8983;53.156;17.960;2023-11-19T10:04:44;22.47;;;12.97;;
17725;SDS011;8983;53.156;17.960;2023-11-19T10:07:14;29.63;;;15.60;;
17725;SDS011;8983;53.156;17.960;2023-11-19T10:09:42;27.03;;;15.07;;
17725;SDS011;8983;53.156;17.960;2023-11-19T10:12:10;33.30;;;16.80;;
17725;SDS011;8983;53.156;17.960;2023-11-19T10:14:38;29.77;;;15.57;;
17725;SDS011;8983;53.156;17.960;2023-11-19T10:17:09;28.30;;;14.50;;
17725;SDS011;8983;53.156;17.960;2023-11-19T10:19:40;30.03;;;14.17;;
17725;SDS011;8983;53.156;17.960;2023-11-19T10:22:09;28.73;;;14.60;;
17725;SDS011;8983;53.156;17.960;2023-11-19T10:24:38;26.80;;;14.77;;
17725;SDS011;8983;53.156;17.960;2023-11-19T10:27:14;25.63;;;12.30;;
17725;SDS011;8983;53.156;17.960;2023-11-19T10:29:43;28.37;;;15.43;;
17725;SDS011;8983;53.156;17.960;2023-11-19T10:32:13;25.50;;;14.60;;
17725;SDS011;8983;53.156;17.960;2023-11-19T10:34:53;28.20;;;14.50;;
17725;SDS011;8983;53.156;17.960;2023-11-19T10:37:33;21.33;;;11.83;;
17725;SDS011;8983;53.156;17.960;2023-11-19T10:40:04;23.00;;;11.83;;
17725;SDS011;8983;53.156;17.960;2023-11-19T10:42:36;23.00;;;13.53;;
17725;SDS011;8983;53.156;17.960;2023-11-19T10:45:05;25.30;;;13.43;;
17725;SDS011;8983;53.156;17.960;2023-11-19T10:47:48;25.57;;;14.20;;
17725;SDS011;8983;53.156;17.960;2023-11-19T10:50:20;27.50;;;12.97;;
17725;SDS011;8983;53.156;17.960;2023-11-19T10:52:50;25.30;;;13.33;;
17725;SDS011;8983;53.156;17.960;2023-11-19T10:55:23;25.10;;;14.20;;
17725;SDS011;8983;53.156;17.960;2023-11-19T10:57:58;25.20;;;13.47;;
17725;SDS011;8983;53.156;17.960;2023-11-19T11:00:28;25.80;;;14.30;;
17725;SDS011;8983;53.156;17.960;2023-11-19T11:03:00;23.63;;;13.70;;
17725;SDS011;8983;53.156;17.960;2023-11-19T11:05:32;32.00;;;14.73;;
17725;SDS011;8983;53.156;17.960;2023-11-19T11:08:01;27.03;;;13.97;;
17725;SDS011;8983;53.156;17.960;2023-11-19T11:10:30;29.10;;;15.30;;
17725;SDS011;8983;53.156;17.960;2023-11-19T11:13:02;32.20;;;14.50;;
17725;SDS011;8983;53.156;17.960;2023-11-19T11:15:32;24.43;;;14.40;;
17725;SDS011;8983;53.156;17.960;2023-11-19T11:18:02;28.80;;;14.90;;
17725;SDS011;8983;53.156;17.960;2023-11-19T11:20:32;31.23;;;14.90;;
17725;SDS011;8983;53.156;17.960;2023-11-19T11:23:07;28.83;;;14.93;;
17725;SDS011;8983;53.156;17.960;2023-11-19T11:25:51;27.60;;;14.07;;
17725;SDS011;8983;53.156;17.960;2023-11-19T11:28:30;28.33;;;14.70;;
17725;SDS011;8983;53.156;17.960;2023-11-19T11:31:15;32.20;;;15.10;;
17725;SDS011;8983;53.156;17.960;2023-11-19T11:34:01;30.20;;;14.50;;
17725;SDS011;8983;53.156;17.960;2023-11-19T11:36:53;30.40;;;15.70;;
17725;SDS011;8983;53.156;17.960;2023-11-19T11:39:25;35.53;;;16.13;;
17725;SDS011;8983;53.156;17.960;2023-11-19T11:45:00;33.07;;;15.60;;
17725;SDS011;8983;53.156;17.960;2023-11-19T11:50:50;31.90;;;16.00;;
17725;SDS011;8983;53.156;17.960;2023-11-19T11:53:24;33.67;;;18.20;;
17725;SDS011;8983;53.156;17.960;2023-11-19T11:55:56;33.37;;;15.87;;
17725;SDS011;8983;53.156;17.960;2023-11-19T11:58:31;38.50;;;17.80;;
17725;SDS011;8983;53.156;17.960;2023-11-19T12:01:01;36.97;;;17.40;;
17725;SDS011;8983;53.156;17.960;2023-11-19T12:03:32;36.33;;;18.13;;
17725;SDS011;8983;53.156;17.960;2023-11-19T12:06:00;38.63;;;17.97;;
17725;SDS011;8983;53.156;17.960;2023-11-19T12:08:31;34.37;;;16.23;;
17725;SDS011;8983;53.156;17.960;2023-11-19T12:11:19;34.47;;;17.40;;
17725;SDS011;8983;53.156;17.960;2023-11-19T12:13:53;37.43;;;18.30;;
17725;SDS011;8983;53.156;17.960;2023-11-19T12:16:29;38.87;;;17.27;;
17725;SDS011;8983;53.156;17.960;2023-11-19T12:19:02;33.10;;;16.57;;
17725;SDS011;8983;53.156;17.960;2023-11-19T12:21:32;38.13;;;18.07;;
17725;SDS011;8983;53.156;17.960;2023-11-19T12:24:05;34.73;;;16.50;;
17725;SDS011;8983;53.156;17.960;2023-11-19T12:26:35;37.17;;;18.17;;
17725;SDS011;8983;53.156;17.960;2023-11-19T12:29:05;33.87;;;18.10;;
17725;SDS011;8983;53.156;17.960;2023-11-19T12:31:35;35.67;;;16.17;;
17725;SDS011;8983;53.156;17.960;2023-11-19T12:34:07;34.20;;;16.77;;
17725;SDS011;8983;53.156;17.960;2023-11-19T12:36:39;32.77;;;15.97;;
17725;SDS011;8983;53.156;17.960;2023-11-19T12:39:10;35.70;;;17.27;;
17725;SDS011;8983;53.156;17.960;2023-11-19T12:41:51;35.87;;;17.23;;
17725;SDS011;8983;53.156;17.960;2023-11-19T12:44:21;33.77;;;17.47;;
17725;SDS011;8983;53.156;17.960;2023-11-19T12:46:59;38.13;;;17.47;;
17725;SDS011;8983;53.156;17.960;2023-11-19T12:49:28;36.77;;;18.10;;
17725;SDS011;8983;53.156;17.960;2023-11-19T12:51:56;35.93;;;16.83;;
17725;SDS011;8983;53.156;17.960;2023-11-19T12:54:35;36.00;;;17.23;;
17725;SDS011;8983;53.156;17.960;2023-11-19T12:57:04;36.60;;;17.43;;
17725;SDS011;8983;53.156;17.960;2023-11-19T12:59:33;37.17;;;16.40;;
17725;SDS011;8983;53.156;17.960;2023-11-19T13:02:01;38.70;;;16.83;;
17725;SDS011;8983;53.156;17.960;2023-11-19T13:04:32;32.83;;;16.23;;
17725;SDS011;8983;53.156;17.960;2023-11-19T13:07:01;32.70;;;16.77;;
17725;SDS011;8983;53.156;17.960;2023-11-19T13:09:31;41.83;;;19.83;;
17725;SDS011;8983;53.156;17.960;2023-11-19T13:12:11;32.57;;;16.70;;
17725;SDS011;8983;53.156;17.960;2023-11-19T13:14:41;93.43;;;41.37;;
17725;SDS011;8983;53.156;17.960;2023-11-19T13:17:12;46.33;;;23.37;;
17725;SDS011;8983;53.156;17.960;2023-11-19T13:19:42;30.23;;;16.40;;
17725;SDS011;8983;53.156;17.960;2023-11-19T13:22:11;34.37;;;15.77;;
17725;SDS011;8983;53.156;17.960;2023-11-19T13:24:39;29.43;;;14.67;;
17725;SDS011;8983;53.156;17.960;2023-11-19T13:27:10;33.53;;;14.93;;
17725;SDS011;8983;53.156;17.960;2023-11-19T13:29:38;36.33;;;18.03;;
17725;SDS011;8983;53.156;17.960;2023-11-19T13:32:06;35.60;;;15.67;;
17725;SDS011;8983;53.156;17.960;2023-11-19T13:34:34;58.97;;;26.80;;
17725;SDS011;8983;53.156;17.960;2023-11-19T13:37:03;67.23;;;26.97;;
17725;SDS011;8983;53.156;17.960;2023-11-19T13:39:31;40.10;;;17.27;;
17725;SDS011;8983;53.156;17.960;2023-11-19T13:42:00;38.57;;;17.50;;
17725;SDS011;8983;53.156;17.960;2023-11-19T13:44:32;59.47;;;25.00;;
17725;SDS011;8983;53.156;17.960;2023-11-19T13:47:00;34.83;;;18.03;;
17725;SDS011;8983;53.156;17.960;2023-11-19T13:49:29;38.87;;;18.53;;
17725;SDS011;8983;53.156;17.960;2023-11-19T13:51:57;33.37;;;16.27;;
17725;SDS011;8983;53.156;17.960;2023-11-19T13:54:25;31.40;;;15.53;;
17725;SDS011;8983;53.156;17.960;2023-11-19T13:56:54;30.87;;;15.20;;
17725;SDS011;8983;53.156;17.960;2023-11-19T13:59:24;30.43;;;15.67;;
17725;SDS011;8983;53.156;17.960;2023-11-19T14:01:54;30.83;;;14.43;;
17725;SDS011;8983;53.156;17.960;2023-11-19T14:04:22;30.17;;;15.13;;
17725;SDS011;8983;53.156;17.960;2023-11-19T14:06:50;29.07;;;15.27;;
17725;SDS011;8983;53.156;17.960;2023-11-19T14:09:32;24.81;;;11.91;;
17725;SDS011;8983;53.156;17.960;2023-11-19T14:12:01;26.63;;;14.20;;
17725;SDS011;8983;53.156;17.960;2023-11-19T14:14:29;34.13;;;17.30;;
17725;SDS011;8983;53.156;17.960;2023-11-19T14:16:59;33.80;;;16.53;;
17725;SDS011;8983;53.156;17.960;2023-11-19T14:19:32;33.00;;;16.20;;
17725;SDS011;8983;53.156;17.960;2023-11-19T14:22:00;34.33;;;16.63;;
17725;SDS011;8983;53.156;17.960;2023-11-19T14:24:28;34.83;;;15.47;;
17725;SDS011;8983;53.156;17.960;2023-11-19T14:26:56;29.90;;;15.10;;
17725;SDS011;8983;53.156;17.960;2023-11-19T14:29:25;29.57;;;14.63;;
17725;SDS011;8983;53.156;17.960;2023-11-19T14:31:54;30.13;;;15.93;;
17725;SDS011;8983;53.156;17.960;2023-11-19T14:34:24;31.60;;;15.60;;
17725;SDS011;8983;53.156;17.960;2023-11-19T14:36:53;33.63;;;16.00;;
17725;SDS011;8983;53.156;17.960;2023-11-19T14:39:21;34.30;;;15.43;;
17725;SDS011;8983;53.156;17.960;2023-11-19T14:41:49;30.80;;;15.47;;
17725;SDS011;8983;53.156;17.960;2023-11-19T14:44:19;30.23;;;15.47;;
17725;SDS011;8983;53.156;17.960;2023-11-19T14:46:47;28.43;;;15.17;;